createdAt,value
2022-09-18T00:00:15.352Z,62.77
2022-09-18T00:01:13.137Z,62.66
2022-09-18T00:01:46.442Z,61.20
2022-09-18T00:02:19.679Z,60.22
2022-09-18T00:02:53.040Z,59.57
2022-09-18T00:03:27.841Z,58.82
2022-09-18T00:04:04.657Z,57.96
2022-09-18T00:04:37.889Z,57.67
2022-09-18T00:05:11.859Z,57.91
2022-09-18T00:05:45.013Z,58.37
2022-09-18T00:06:24.083Z,58.92
2022-09-18T00:06:57.339Z,59.49
2022-09-18T00:07:30.730Z,60.13
2022-09-18T00:08:04.747Z,60.74
2022-09-18T00:08:43.882Z,61.28
2022-09-18T00:09:17.266Z,61.71
2022-09-18T00:09:50.405Z,62.44
2022-09-18T00:10:23.809Z,63.04
2022-09-18T00:10:57.025Z,63.82
2022-09-18T00:11:35.701Z,64.06
2022-09-18T00:12:08.793Z,63.86
2022-09-18T00:12:41.938Z,62.89
2022-09-18T00:13:15.712Z,62.00
2022-09-18T00:13:50.148Z,61.13
2022-09-18T00:14:24.115Z,60.49
2022-09-18T00:14:57.295Z,59.91
2022-09-18T00:15:30.620Z,59.37
2022-09-18T00:16:04.802Z,58.59
2022-09-18T00:16:38.750Z,58.18
2022-09-18T00:17:12.083Z,58.20
2022-09-18T00:17:45.285Z,58.59
2022-09-18T00:18:18.453Z,59.04
2022-09-18T00:18:53.031Z,59.56
2022-09-18T00:19:26.477Z,59.97
2022-09-18T00:19:59.532Z,60.40
2022-09-18T00:20:37.554Z,61.12
2022-09-18T00:21:22.631Z,61.62
2022-09-18T00:21:56.364Z,62.10
2022-09-18T00:22:29.855Z,63.20
2022-09-18T00:23:03.551Z,63.84
2022-09-18T00:23:37.457Z,63.96
2022-09-18T00:24:11.314Z,63.71
2022-09-18T00:24:44.418Z,63.15
2022-09-18T00:25:17.448Z,62.21
2022-09-18T00:25:50.809Z,61.51
2022-09-18T00:26:26.013Z,60.72
2022-09-18T00:26:59.158Z,60.16
2022-09-18T00:27:32.371Z,59.26
2022-09-18T00:28:05.454Z,58.46
2022-09-18T00:28:39.213Z,58.00
2022-09-18T00:29:13.897Z,58.05
2022-09-18T00:29:47.281Z,58.42
2022-09-18T00:30:20.535Z,58.87
2022-09-18T00:30:54.252Z,59.44
2022-09-18T00:31:33.997Z,60.04
2022-09-18T00:32:07.344Z,60.72
2022-09-18T00:32:40.625Z,61.53
2022-09-18T00:33:13.785Z,62.20
2022-09-18T00:33:47.334Z,62.87
2022-09-18T00:34:20.528Z,63.68
2022-09-18T00:34:53.539Z,63.97
2022-09-18T00:35:26.768Z,63.74
2022-09-18T00:36:04.924Z,62.95
2022-09-18T00:36:40.005Z,62.36
2022-09-18T00:37:13.503Z,61.44
2022-09-18T00:37:46.599Z,60.68
2022-09-18T00:38:19.844Z,59.95
2022-09-18T00:38:54.038Z,59.25
2022-09-18T00:39:27.336Z,58.54
2022-09-18T00:40:00.747Z,58.13
2022-09-18T00:40:34.101Z,58.19
2022-09-18T00:41:13.451Z,58.65
2022-09-18T00:41:46.805Z,59.01
2022-09-18T00:42:20.832Z,59.79
2022-09-18T00:42:54.305Z,60.44
2022-09-18T00:43:30.022Z,61.20
2022-09-18T00:44:36.763Z,61.75
2022-09-18T00:45:11.051Z,61.62
2022-09-18T00:45:47.337Z,63.47
2022-09-18T00:46:23.959Z,64.34
2022-09-18T00:47:34.485Z,64.75
2022-09-18T00:48:09.678Z,65.58
2022-09-18T00:49:04.912Z,63.37
2022-09-18T00:50:02.581Z,63.14
2022-09-18T00:50:35.995Z,61.72
2022-09-18T00:51:09.551Z,59.98
2022-09-18T00:51:44.778Z,59.30
2022-09-18T00:52:21.554Z,58.51
2022-09-18T00:53:00.617Z,58.06
2022-09-18T00:53:35.006Z,58.10
2022-09-18T00:54:15.264Z,58.63
2022-09-18T00:54:53.537Z,59.08
2022-09-18T00:55:34.276Z,59.81
2022-09-18T00:56:08.645Z,60.35
2022-09-18T00:56:43.028Z,61.36
2022-09-18T00:57:24.798Z,61.83
2022-09-18T00:58:01.510Z,62.47
2022-09-18T00:58:35.499Z,63.61
2022-09-18T00:59:14.259Z,63.87
2022-09-18T00:59:50.952Z,63.66
2022-09-18T01:00:25.205Z,62.77
2022-09-18T01:01:01.592Z,61.86
2022-09-18T01:01:34.810Z,60.88
2022-09-18T01:02:07.999Z,59.77
2022-09-18T01:02:43.684Z,58.98
2022-09-18T01:03:16.912Z,58.18
2022-09-18T01:03:50.134Z,57.87
2022-09-18T01:04:23.638Z,57.91
2022-09-18T01:04:56.935Z,58.30
2022-09-18T01:05:57.935Z,58.70
2022-09-18T01:06:38.843Z,58.89
2022-09-18T01:07:17.689Z,59.54
2022-09-18T01:08:03.528Z,59.62
2022-09-18T01:08:54.704Z,61.03
2022-09-18T01:09:48.602Z,60.98
2022-09-18T01:10:51.374Z,61.15
2022-09-18T01:11:58.885Z,64.22
2022-09-18T01:12:56.351Z,66.16
2022-09-18T01:13:59.956Z,65.06
2022-09-18T01:14:52.877Z,63.68
2022-09-18T01:15:28.980Z,61.92
2022-09-18T01:16:37.590Z,59.88
2022-09-18T01:17:26.259Z,59.31
2022-09-18T01:18:41.886Z,58.05
2022-09-18T01:19:54.272Z,57.98
2022-09-18T01:20:55.212Z,58.74
2022-09-18T01:21:50.676Z,59.98
2022-09-18T01:22:51.700Z,60.96
2022-09-18T01:23:52.557Z,61.40
2022-09-18T01:24:55.739Z,63.56
2022-09-18T01:25:37.779Z,65.56
2022-09-18T01:26:21.931Z,64.17
2022-09-18T01:27:03.289Z,63.22
2022-09-18T01:27:43.929Z,61.94
2022-09-18T01:28:24.828Z,60.99
2022-09-18T01:29:09.131Z,60.01
2022-09-18T01:30:06.138Z,58.99
2022-09-18T01:30:43.107Z,58.13
2022-09-18T01:31:25.342Z,58.10
2022-09-18T01:32:06.637Z,58.51
2022-09-18T01:32:59.478Z,59.21
2022-09-18T01:33:50.618Z,59.73
2022-09-18T01:34:26.553Z,60.01
2022-09-18T01:35:18.731Z,60.37
2022-09-18T01:36:08.320Z,61.74
2022-09-18T01:36:49.756Z,63.34
2022-09-18T01:37:36.718Z,64.47
2022-09-18T01:38:37.202Z,64.91
2022-09-18T01:39:17.232Z,64.77
2022-09-18T01:40:00.533Z,63.00
2022-09-18T01:41:03.260Z,61.97
2022-09-18T01:41:40.176Z,61.64
2022-09-18T01:42:17.946Z,59.71
2022-09-18T01:42:55.358Z,58.92
2022-09-18T01:43:32.027Z,58.25
2022-09-18T01:44:18.163Z,58.14
2022-09-18T01:44:56.149Z,58.43
2022-09-18T01:45:33.921Z,59.15
2022-09-18T01:46:18.137Z,59.89
2022-09-18T01:46:53.179Z,60.40
2022-09-18T01:47:32.839Z,61.30
2022-09-18T01:48:08.815Z,61.98
2022-09-18T01:48:51.496Z,62.93
2022-09-18T01:49:31.508Z,63.75
2022-09-18T01:50:07.327Z,64.05
2022-09-18T01:50:48.659Z,63.67
2022-09-18T01:51:36.508Z,63.33
2022-09-18T01:52:22.084Z,62.71
2022-09-18T01:53:16.870Z,61.53
2022-09-18T01:54:04.765Z,60.87
2022-09-18T01:54:42.503Z,59.72
2022-09-18T01:55:21.206Z,58.57
2022-09-18T01:56:01.686Z,58.18
2022-09-18T01:56:40.487Z,58.47
2022-09-18T01:57:27.888Z,58.92
2022-09-18T01:58:10.162Z,59.43
2022-09-18T01:58:45.262Z,60.46
2022-09-18T01:59:37.404Z,61.49
2022-09-18T02:00:12.891Z,61.90
2022-09-18T02:00:51.580Z,63.15
2022-09-18T02:01:29.614Z,64.00
2022-09-18T02:02:07.637Z,64.55
2022-09-18T02:03:02.239Z,64.09
2022-09-18T02:03:59.028Z,63.86
2022-09-18T02:04:36.187Z,61.64
2022-09-18T02:05:14.701Z,60.94
2022-09-18T02:05:56.508Z,60.42
2022-09-18T02:06:32.602Z,60.14
2022-09-18T02:07:30.467Z,59.03
2022-09-18T02:08:30.362Z,58.29
2022-09-18T02:09:04.211Z,58.06
2022-09-18T02:09:37.771Z,59.08
2022-09-18T02:10:10.847Z,59.81
2022-09-18T02:10:52.546Z,60.34
2022-09-18T02:11:25.988Z,61.48
2022-09-18T02:12:01.623Z,62.28
2022-09-18T02:12:39.360Z,62.76
2022-09-18T02:13:18.583Z,63.45
2022-09-18T02:14:33.311Z,63.79
2022-09-18T02:15:11.452Z,63.09
2022-09-18T02:15:49.124Z,62.68
2022-09-18T02:16:30.778Z,62.26
2022-09-18T02:17:11.018Z,61.76
2022-09-18T02:17:54.086Z,60.97
2022-09-18T02:18:37.692Z,60.58
2022-09-18T02:19:25.722Z,60.13
2022-09-18T02:20:14.105Z,60.48
2022-09-18T02:20:47.874Z,60.22
2022-09-18T02:21:28.899Z,59.89
2022-09-18T02:22:07.213Z,59.49
2022-09-18T02:22:45.030Z,59.13
2022-09-18T02:23:18.770Z,59.13
2022-09-18T02:23:53.952Z,59.44
2022-09-18T02:24:36.561Z,59.84
2022-09-18T02:25:13.756Z,60.48
2022-09-18T02:25:59.964Z,61.50
2022-09-18T02:26:35.853Z,62.15
2022-09-18T02:27:11.703Z,63.55
2022-09-18T02:27:45.002Z,64.15
2022-09-18T02:28:22.055Z,64.27
2022-09-18T02:28:56.846Z,64.00
2022-09-18T02:29:31.866Z,63.62
2022-09-18T02:30:06.864Z,62.45
2022-09-18T02:30:40.121Z,62.06
2022-09-18T02:31:13.390Z,61.61
2022-09-18T02:31:46.697Z,60.79
2022-09-18T02:32:19.958Z,60.47
2022-09-18T02:32:55.439Z,60.09
2022-09-18T02:33:34.131Z,59.90
2022-09-18T02:34:09.549Z,59.49
2022-09-18T02:34:43.056Z,58.85
2022-09-18T02:35:16.334Z,58.90
2022-09-18T02:35:56.561Z,59.34
2022-09-18T02:37:09.249Z,60.09
2022-09-18T02:37:52.019Z,60.97
2022-09-18T02:38:34.387Z,62.23
2022-09-18T02:39:42.984Z,63.46
2022-09-18T02:40:38.617Z,64.26
2022-09-18T02:41:24.017Z,63.97
2022-09-18T02:42:03.131Z,63.96
2022-09-18T02:42:41.900Z,62.43
2022-09-18T02:43:54.611Z,61.64
2022-09-18T02:44:39.886Z,60.87
2022-09-18T02:45:16.130Z,60.75
2022-09-18T02:46:06.101Z,60.17
2022-09-18T02:47:04.060Z,59.37
2022-09-18T02:48:03.213Z,58.81
2022-09-18T02:48:48.234Z,58.73
2022-09-18T02:49:37.092Z,59.22
2022-09-18T02:50:32.471Z,60.04
2022-09-18T02:51:37.260Z,60.74
2022-09-18T02:53:00.102Z,62.61
2022-09-18T02:53:46.575Z,65.50
2022-09-18T02:54:28.481Z,64.29
2022-09-18T02:55:29.410Z,62.90
2022-09-18T02:56:09.157Z,62.72
2022-09-18T02:56:52.801Z,61.07
2022-09-18T02:57:40.721Z,60.35
2022-09-18T02:58:26.351Z,59.32
2022-09-18T02:59:24.823Z,58.11
2022-09-18T03:00:01.744Z,58.02
2022-09-18T03:00:36.532Z,59.12
2022-09-18T03:01:12.297Z,59.87
2022-09-18T03:01:46.444Z,60.73
2022-09-18T03:02:23.119Z,61.52
2022-09-18T03:02:59.960Z,62.39
2022-09-18T03:03:37.600Z,63.35
2022-09-18T03:04:13.683Z,63.83
2022-09-18T03:04:46.800Z,64.16
2022-09-18T03:05:20.093Z,63.85
2022-09-18T03:05:53.080Z,63.01
2022-09-18T03:06:26.184Z,61.88
2022-09-18T03:06:59.532Z,60.87
2022-09-18T03:07:32.721Z,60.28
2022-09-18T03:08:05.910Z,59.41
2022-09-18T03:08:39.232Z,58.83
2022-09-18T03:09:13.492Z,58.16
2022-09-18T03:09:46.809Z,58.13
2022-09-18T03:10:19.927Z,58.42
2022-09-18T03:10:52.953Z,58.61
2022-09-18T03:11:26.103Z,59.37
2022-09-18T03:11:59.315Z,60.16
2022-09-18T03:12:32.460Z,60.92
2022-09-18T03:13:05.409Z,61.45
2022-09-18T03:13:38.564Z,62.35
2022-09-18T03:14:12.894Z,62.94
2022-09-18T03:14:45.902Z,63.89
2022-09-18T03:15:18.953Z,64.10
2022-09-18T03:15:52.174Z,63.87
2022-09-18T03:16:25.473Z,63.32
2022-09-18T03:16:58.592Z,62.32
2022-09-18T03:17:31.673Z,61.53
2022-09-18T03:18:04.744Z,60.70
2022-09-18T03:18:37.790Z,59.95
2022-09-18T03:19:12.092Z,59.09
2022-09-18T03:19:46.224Z,58.34
2022-09-18T03:20:19.491Z,58.02
2022-09-18T03:20:52.664Z,58.01
2022-09-18T03:21:26.969Z,58.49
2022-09-18T03:22:00.266Z,59.08
2022-09-18T03:22:33.458Z,59.78
2022-09-18T03:23:06.572Z,60.41
2022-09-18T03:23:44.786Z,60.96
2022-09-18T03:24:20.058Z,61.20
2022-09-18T03:24:53.192Z,62.36
2022-09-18T03:25:26.214Z,63.17
2022-09-18T03:25:59.289Z,64.06
2022-09-18T03:26:32.512Z,64.26
2022-09-18T03:27:05.773Z,64.06
2022-09-18T03:27:39.272Z,63.30
2022-09-18T03:28:12.624Z,62.33
2022-09-18T03:28:45.609Z,61.37
2022-09-18T03:29:18.719Z,60.50
2022-09-18T03:29:51.717Z,59.63
2022-09-18T03:30:24.781Z,58.62
2022-09-18T03:30:58.048Z,57.90
2022-09-18T03:31:31.430Z,57.49
2022-09-18T03:32:05.089Z,57.76
2022-09-18T03:32:38.229Z,58.18
2022-09-18T03:33:11.367Z,58.80
2022-09-18T03:33:44.353Z,59.43
2022-09-18T03:34:17.696Z,59.86
2022-09-18T03:34:51.109Z,60.66
2022-09-18T03:35:24.183Z,61.51
2022-09-18T03:35:57.349Z,62.18
2022-09-18T03:36:30.752Z,62.87
2022-09-18T03:37:04.095Z,63.59
2022-09-18T03:37:37.389Z,63.68
2022-09-18T03:38:10.976Z,63.49
2022-09-18T03:38:44.461Z,62.82
2022-09-18T03:39:18.336Z,61.98
2022-09-18T03:39:51.569Z,61.02
2022-09-18T03:40:24.879Z,60.07
2022-09-18T03:40:58.095Z,59.38
2022-09-18T03:41:31.236Z,58.35
2022-09-18T03:42:04.426Z,57.69
2022-09-18T03:42:37.794Z,57.67
2022-09-18T03:43:11.421Z,57.83
2022-09-18T03:43:44.966Z,58.34
2022-09-18T03:44:18.084Z,58.78
2022-09-18T03:44:51.169Z,59.67
2022-09-18T03:45:24.338Z,60.41
2022-09-18T03:45:57.466Z,61.10
2022-09-18T03:46:30.708Z,61.70
2022-09-18T03:47:04.217Z,62.31
2022-09-18T03:47:38.008Z,62.80
2022-09-18T03:48:11.442Z,63.70
2022-09-18T03:48:44.608Z,63.70
2022-09-18T03:49:18.189Z,63.21
2022-09-18T03:49:51.471Z,62.47
2022-09-18T03:50:24.614Z,61.57
2022-09-18T03:50:57.677Z,60.78
2022-09-18T03:51:30.998Z,60.16
2022-09-18T03:52:04.604Z,59.28
2022-09-18T03:52:37.664Z,58.30
2022-09-18T03:53:12.825Z,57.84
2022-09-18T03:53:47.542Z,57.85
2022-09-18T03:54:20.697Z,58.18
2022-09-18T03:54:55.206Z,58.72
2022-09-18T03:55:28.358Z,59.39
2022-09-18T03:56:01.518Z,60.10
2022-09-18T03:56:34.803Z,60.92
2022-09-18T03:57:07.936Z,61.44
2022-09-18T03:57:41.053Z,62.07
2022-09-18T03:58:14.178Z,62.62
2022-09-18T03:58:47.351Z,63.28
2022-09-18T03:59:20.376Z,63.76
2022-09-18T03:59:54.129Z,63.56
2022-09-18T04:00:27.424Z,63.05
2022-09-18T04:01:00.679Z,62.21
2022-09-18T04:01:33.935Z,61.28
2022-09-18T04:02:07.326Z,60.40
2022-09-18T04:02:41.173Z,59.83
2022-09-18T04:03:14.558Z,58.89
2022-09-18T04:03:47.805Z,57.90
2022-09-18T04:04:20.881Z,57.63
2022-09-18T04:04:54.375Z,57.45
2022-09-18T04:05:27.560Z,57.92
2022-09-18T04:06:00.859Z,58.66
2022-09-18T04:06:33.995Z,59.08
2022-09-18T04:07:08.533Z,59.89
2022-09-18T04:07:41.608Z,60.42
2022-09-18T04:08:14.603Z,61.15
2022-09-18T04:08:47.650Z,61.71
2022-09-18T04:09:20.854Z,62.40
2022-09-18T04:09:54.057Z,63.24
2022-09-18T04:10:27.684Z,64.00
2022-09-18T04:11:00.940Z,64.10
2022-09-18T04:11:33.963Z,63.57
2022-09-18T04:12:07.291Z,62.73
2022-09-18T04:12:40.503Z,62.12
2022-09-18T04:13:13.645Z,61.30
2022-09-18T04:13:46.883Z,60.54
2022-09-18T04:14:20.035Z,59.95
2022-09-18T04:14:53.360Z,59.08
2022-09-18T04:15:28.299Z,58.22
2022-09-18T04:16:02.050Z,57.75
2022-09-18T04:16:35.183Z,57.73
2022-09-18T04:17:08.373Z,58.12
2022-09-18T04:17:41.489Z,58.69
2022-09-18T04:18:14.684Z,59.44
2022-09-18T04:18:48.561Z,60.00
2022-09-18T04:19:21.722Z,60.55
2022-09-18T04:19:55.206Z,61.40
2022-09-18T04:20:29.381Z,62.01
2022-09-18T04:21:02.562Z,62.63
2022-09-18T04:21:35.739Z,63.41
2022-09-18T04:22:08.937Z,63.85
2022-09-18T04:22:42.047Z,63.58
2022-09-18T04:23:15.617Z,62.90
2022-09-18T04:23:49.527Z,62.13
2022-09-18T04:24:22.645Z,61.27
2022-09-18T04:24:55.790Z,60.46
2022-09-18T04:25:29.070Z,59.64
2022-09-18T04:26:09.175Z,58.68
2022-09-18T04:26:42.191Z,57.78
2022-09-18T04:27:15.303Z,57.41
2022-09-18T04:27:48.346Z,57.58
2022-09-18T04:28:21.454Z,57.87
2022-09-18T04:28:54.507Z,58.39
2022-09-18T04:29:27.645Z,58.83
2022-09-18T04:30:00.832Z,59.72
2022-09-18T04:30:34.139Z,60.07
2022-09-18T04:31:07.434Z,60.78
2022-09-18T04:31:40.730Z,61.41
2022-09-18T04:32:14.133Z,61.94
2022-09-18T04:32:47.456Z,62.76
2022-09-18T04:33:20.695Z,63.36
2022-09-18T04:33:54.044Z,63.41
2022-09-18T04:34:27.292Z,63.57
2022-09-18T04:35:00.629Z,63.22
2022-09-18T04:35:34.208Z,62.23
2022-09-18T04:36:07.486Z,61.68
2022-09-18T04:36:40.665Z,61.06
2022-09-18T04:37:13.676Z,60.28
2022-09-18T04:37:46.877Z,59.85
2022-09-18T04:38:27.730Z,59.22
2022-09-18T04:39:01.100Z,58.63
2022-09-18T04:39:34.333Z,58.34
2022-09-18T04:40:08.007Z,58.53
2022-09-18T04:40:41.368Z,59.16
2022-09-18T04:41:14.779Z,59.71
2022-09-18T04:41:47.957Z,60.38
2022-09-18T04:42:21.054Z,61.07
2022-09-18T04:42:54.088Z,61.78
2022-09-18T04:43:28.343Z,62.37
2022-09-18T04:44:01.729Z,63.03
2022-09-18T04:44:34.930Z,63.74
2022-09-18T04:45:08.807Z,63.85
2022-09-18T04:45:45.498Z,63.66
2022-09-18T04:46:18.705Z,63.05
2022-09-18T04:46:51.987Z,62.04
2022-09-18T04:47:25.257Z,61.13
2022-09-18T04:47:58.480Z,60.45
2022-09-18T04:48:31.739Z,59.80
2022-09-18T04:49:05.213Z,59.36
2022-09-18T04:49:38.666Z,58.52
2022-09-18T04:50:11.956Z,57.98
2022-09-18T04:50:48.951Z,58.11
2022-09-18T04:51:22.211Z,58.49
2022-09-18T04:51:55.470Z,59.12
2022-09-18T04:52:28.905Z,59.94
2022-09-18T04:53:01.974Z,60.80
2022-09-18T04:53:38.287Z,61.37
2022-09-18T04:54:12.090Z,61.88
2022-09-18T04:54:45.297Z,62.66
2022-09-18T04:55:18.409Z,63.50
2022-09-18T04:55:51.960Z,63.62
2022-09-18T04:56:25.171Z,63.39
2022-09-18T04:56:58.421Z,62.84
2022-09-18T04:57:31.623Z,62.16
2022-09-18T04:58:05.544Z,61.37
2022-09-18T04:58:38.743Z,61.03
2022-09-18T04:59:11.894Z,60.34
2022-09-18T04:59:45.100Z,59.93
2022-09-18T05:00:18.232Z,59.36
2022-09-18T05:00:51.572Z,58.87
2022-09-18T05:01:25.043Z,58.49
2022-09-18T05:01:59.581Z,58.69
2022-09-18T05:02:33.002Z,59.34
2022-09-18T05:03:06.985Z,60.17
2022-09-18T05:03:40.105Z,60.76
2022-09-18T05:04:13.508Z,61.35
2022-09-18T05:04:46.655Z,62.03
2022-09-18T05:05:19.762Z,62.71
2022-09-18T05:05:53.039Z,63.63
2022-09-18T05:06:26.514Z,64.25
2022-09-18T05:06:59.629Z,64.19
2022-09-18T05:07:33.058Z,63.85
2022-09-18T05:08:06.775Z,63.06
2022-09-18T05:08:39.819Z,62.54
2022-09-18T05:09:13.322Z,62.05
2022-09-18T05:09:46.622Z,61.45
2022-09-18T05:10:19.891Z,60.48
2022-09-18T05:10:54.113Z,59.99
2022-09-18T05:11:28.302Z,59.74
2022-09-18T05:12:02.211Z,59.50
2022-09-18T05:12:35.335Z,58.91
2022-09-18T05:13:09.177Z,58.71
2022-09-18T05:13:43.633Z,58.95
2022-09-18T05:14:16.716Z,59.52
2022-09-18T05:14:49.894Z,60.08
2022-09-18T05:15:23.383Z,60.78
2022-09-18T05:15:58.405Z,61.70
2022-09-18T05:16:31.797Z,62.59
2022-09-18T05:17:05.282Z,63.41
2022-09-18T05:17:42.032Z,64.06
2022-09-18T05:18:15.420Z,64.44
2022-09-18T05:18:48.575Z,64.03
2022-09-18T05:19:21.747Z,63.22
2022-09-18T05:19:55.588Z,62.11
2022-09-18T05:20:29.116Z,61.35
2022-09-18T05:21:03.761Z,60.74
2022-09-18T05:21:37.145Z,59.89
2022-09-18T05:22:10.493Z,59.20
2022-09-18T05:22:47.453Z,58.95
2022-09-18T05:23:20.598Z,58.75
2022-09-18T05:23:53.853Z,58.97
2022-09-18T05:24:26.941Z,59.46
2022-09-18T05:25:00.366Z,60.18
2022-09-18T05:25:33.684Z,61.09
2022-09-18T05:26:07.225Z,62.12
2022-09-18T05:26:40.550Z,62.89
2022-09-18T05:27:13.757Z,63.67
2022-09-18T05:27:57.699Z,64.37
2022-09-18T05:28:31.372Z,64.71
2022-09-18T05:29:04.758Z,63.92
2022-09-18T05:29:37.984Z,63.50
2022-09-18T05:30:11.206Z,62.79
2022-09-18T05:30:44.289Z,62.06
2022-09-18T05:31:18.092Z,61.44
2022-09-18T05:31:51.532Z,60.88
2022-09-18T05:32:24.918Z,60.42
2022-09-18T05:33:00.688Z,59.91
2022-09-18T05:33:47.471Z,59.75
2022-09-18T05:34:20.627Z,58.88
2022-09-18T05:34:53.839Z,58.74
2022-09-18T05:35:29.114Z,59.04
2022-09-18T05:36:04.487Z,59.74
2022-09-18T05:36:37.640Z,60.39
2022-09-18T05:37:10.844Z,61.25
2022-09-18T05:37:44.026Z,62.00
2022-09-18T05:38:17.052Z,62.68
2022-09-18T05:38:50.179Z,63.69
2022-09-18T05:39:23.369Z,64.15
2022-09-18T05:39:56.840Z,63.95
2022-09-18T05:40:33.887Z,63.34
2022-09-18T05:41:07.124Z,62.81
2022-09-18T05:41:40.220Z,62.07
2022-09-18T05:42:13.876Z,61.45
2022-09-18T05:42:48.369Z,60.80
2022-09-18T05:43:21.596Z,60.33
2022-09-18T05:43:55.087Z,59.80
2022-09-18T05:44:28.317Z,59.28
2022-09-18T05:45:02.158Z,58.63
2022-09-18T05:45:35.543Z,58.26
2022-09-18T05:46:08.959Z,58.55
2022-09-18T05:46:42.393Z,59.18
2022-09-18T05:47:15.617Z,59.94
2022-09-18T05:48:00.812Z,60.34
2022-09-18T05:48:34.033Z,60.79
2022-09-18T05:49:07.203Z,62.22
2022-09-18T05:49:40.197Z,63.04
2022-09-18T05:50:13.361Z,63.78
2022-09-18T05:50:46.833Z,64.15
2022-09-18T05:51:20.226Z,64.01
2022-09-18T05:51:55.007Z,63.54
2022-09-18T05:52:28.197Z,62.89
2022-09-18T05:53:02.784Z,62.05
2022-09-18T05:53:36.103Z,61.37
2022-09-18T05:54:09.071Z,60.64
2022-09-18T05:54:42.578Z,60.09
2022-09-18T05:55:15.843Z,59.61
2022-09-18T05:55:49.056Z,59.06
2022-09-18T05:56:22.304Z,58.50
2022-09-18T05:56:55.432Z,58.30
2022-09-18T05:57:28.805Z,58.57
2022-09-18T05:58:03.532Z,59.00
2022-09-18T05:58:36.620Z,59.70
2022-09-18T05:59:09.736Z,60.46
2022-09-18T05:59:43.288Z,61.23
2022-09-18T06:00:16.668Z,61.93
2022-09-18T06:00:51.575Z,62.64
2022-09-18T06:01:24.722Z,63.56
2022-09-18T06:01:58.458Z,64.23
2022-09-18T06:02:31.648Z,63.95
2022-09-18T06:03:07.659Z,63.56
2022-09-18T06:03:41.644Z,63.08
2022-09-18T06:04:15.055Z,62.30
2022-09-18T06:04:48.109Z,61.56
2022-09-18T06:05:21.646Z,60.85
2022-09-18T06:05:55.599Z,60.29
2022-09-18T06:06:30.088Z,59.88
2022-09-18T06:07:03.425Z,59.39
2022-09-18T06:07:36.646Z,58.87
2022-09-18T06:08:11.670Z,58.55
2022-09-18T06:08:44.749Z,58.85
2022-09-18T06:09:18.025Z,59.31
2022-09-18T06:09:51.106Z,59.93
2022-09-18T06:10:24.482Z,60.73
2022-09-18T06:11:01.411Z,61.45
2022-09-18T06:11:34.654Z,62.17
2022-09-18T06:12:07.919Z,63.02
2022-09-18T06:12:41.127Z,63.71
2022-09-18T06:13:16.817Z,64.13
2022-09-18T06:13:52.055Z,64.20
2022-09-18T06:14:25.118Z,63.73
2022-09-18T06:14:58.271Z,62.94
2022-09-18T06:15:32.485Z,62.24
2022-09-18T06:16:06.009Z,61.52
2022-09-18T06:16:42.330Z,60.99
2022-09-18T06:17:15.717Z,60.61
2022-09-18T06:17:52.336Z,60.01
2022-09-18T06:18:26.468Z,59.56
2022-09-18T06:18:59.596Z,58.90
2022-09-18T06:19:32.746Z,58.49
2022-09-18T06:20:08.655Z,58.49
2022-09-18T06:20:42.803Z,58.76
2022-09-18T06:21:17.086Z,59.56
2022-09-18T06:21:50.703Z,60.13
2022-09-18T06:22:24.065Z,60.93
2022-09-18T06:23:01.592Z,61.74
2022-09-18T06:23:34.966Z,62.37
2022-09-18T06:24:09.876Z,63.41
2022-09-18T06:24:43.321Z,64.25
2022-09-18T06:25:19.606Z,64.34
2022-09-18T06:26:00.892Z,64.32
2022-09-18T06:26:34.144Z,63.90
2022-09-18T06:27:07.890Z,62.59
2022-09-18T06:27:41.145Z,61.87
2022-09-18T06:28:14.488Z,61.24
2022-09-18T06:28:48.625Z,60.73
2022-09-18T06:29:21.840Z,60.22
2022-09-18T06:29:55.060Z,59.74
2022-09-18T06:30:32.625Z,59.15
2022-09-18T06:31:06.231Z,58.52
2022-09-18T06:31:39.664Z,58.44
2022-09-18T06:32:13.462Z,58.77
2022-09-18T06:32:46.890Z,59.32
2022-09-18T06:33:20.225Z,60.00
2022-09-18T06:33:53.378Z,60.77
2022-09-18T06:34:26.845Z,61.49
2022-09-18T06:35:00.063Z,62.13
2022-09-18T06:35:34.795Z,62.85
2022-09-18T06:36:14.125Z,63.68
2022-09-18T06:36:47.316Z,64.34
2022-09-18T06:37:20.550Z,63.84
2022-09-18T06:37:53.912Z,63.22
2022-09-18T06:38:27.203Z,62.52
2022-09-18T06:39:00.630Z,61.81
2022-09-18T06:39:33.988Z,61.15
2022-09-18T06:40:07.830Z,60.47
2022-09-18T06:40:49.485Z,59.90
2022-09-18T06:41:24.395Z,59.28
2022-09-18T06:42:00.426Z,58.41
2022-09-18T06:42:33.633Z,58.19
2022-09-18T06:43:06.855Z,58.53
2022-09-18T06:43:40.030Z,59.07
2022-09-18T06:44:13.577Z,59.67
2022-09-18T06:44:46.901Z,60.24
2022-09-18T06:45:20.139Z,60.98
2022-09-18T06:45:57.956Z,61.70
2022-09-18T06:46:31.249Z,62.19
2022-09-18T06:47:04.646Z,63.25
2022-09-18T06:47:38.066Z,64.15
2022-09-18T06:48:11.321Z,64.36
2022-09-18T06:48:44.443Z,63.88
2022-09-18T06:49:17.740Z,63.18
2022-09-18T06:49:51.055Z,62.33
2022-09-18T06:50:25.512Z,61.56
2022-09-18T06:50:59.832Z,60.95
2022-09-18T06:51:32.909Z,60.29
2022-09-18T06:52:06.240Z,59.63
2022-09-18T06:52:39.410Z,59.06
2022-09-18T06:53:12.970Z,58.50
2022-09-18T06:53:46.478Z,58.32
2022-09-18T06:54:19.535Z,58.46
2022-09-18T06:54:52.732Z,58.85
2022-09-18T06:55:27.416Z,59.47
2022-09-18T06:56:02.815Z,60.12
2022-09-18T06:56:35.851Z,60.90
2022-09-18T06:57:09.213Z,61.63
2022-09-18T06:57:42.974Z,62.26
2022-09-18T06:58:17.631Z,63.06
2022-09-18T06:58:53.930Z,63.92
2022-09-18T06:59:27.432Z,64.12
2022-09-18T07:00:00.744Z,63.61
2022-09-18T07:00:34.337Z,62.88
2022-09-18T07:01:07.769Z,62.14
2022-09-18T07:01:41.506Z,61.41
2022-09-18T07:02:19.231Z,60.72
2022-09-18T07:03:00.750Z,60.09
2022-09-18T07:03:33.913Z,59.69
2022-09-18T07:04:07.143Z,58.75
2022-09-18T07:04:41.259Z,58.02
2022-09-18T07:05:14.524Z,57.83
2022-09-18T07:05:47.772Z,58.05
2022-09-18T07:06:20.971Z,58.57
2022-09-18T07:06:54.634Z,59.23
2022-09-18T07:07:27.907Z,59.91
2022-09-18T07:08:01.929Z,60.59
2022-09-18T07:08:35.049Z,61.35
2022-09-18T07:09:08.177Z,62.11
2022-09-18T07:09:41.501Z,62.83
2022-09-18T07:10:14.820Z,63.66
2022-09-18T07:10:48.160Z,63.91
2022-09-18T07:11:21.822Z,63.55
2022-09-18T07:11:55.502Z,62.88
2022-09-18T07:12:32.190Z,62.18
2022-09-18T07:13:05.977Z,61.38
2022-09-18T07:13:39.123Z,60.46
2022-09-18T07:14:12.530Z,59.63
2022-09-18T07:14:45.797Z,59.05
2022-09-18T07:15:20.349Z,58.34
2022-09-18T07:15:53.683Z,58.14
2022-09-18T07:16:27.026Z,58.46
2022-09-18T07:17:00.442Z,59.03
2022-09-18T07:17:33.889Z,59.59
2022-09-18T07:18:08.259Z,60.36
2022-09-18T07:18:41.296Z,61.03
2022-09-18T07:19:14.727Z,61.67
2022-09-18T07:19:47.978Z,62.42
2022-09-18T07:20:21.269Z,63.30
2022-09-18T07:20:54.579Z,64.11
2022-09-18T07:21:27.956Z,64.42
2022-09-18T07:22:01.587Z,64.35
2022-09-18T07:22:35.092Z,63.79
2022-09-18T07:23:09.242Z,62.92
2022-09-18T07:23:42.997Z,62.10
2022-09-18T07:24:16.018Z,61.26
2022-09-18T07:24:49.110Z,60.54
2022-09-18T07:25:23.176Z,59.67
2022-09-18T07:25:59.616Z,58.94
2022-09-18T07:26:33.004Z,58.42
2022-09-18T07:27:06.170Z,58.19
2022-09-18T07:27:39.358Z,58.52
2022-09-18T07:28:13.888Z,59.15
2022-09-18T07:28:47.148Z,59.70
2022-09-18T07:29:20.893Z,60.62
2022-09-18T07:29:54.284Z,61.35
2022-09-18T07:30:28.051Z,62.12
2022-09-18T07:31:06.006Z,63.00
2022-09-18T07:31:41.812Z,63.73
2022-09-18T07:32:16.031Z,64.05
2022-09-18T07:32:49.441Z,63.81
2022-09-18T07:33:22.776Z,63.41
2022-09-18T07:33:56.961Z,62.67
2022-09-18T07:34:30.358Z,61.98
2022-09-18T07:35:03.914Z,61.34
2022-09-18T07:35:37.362Z,60.75
2022-09-18T07:36:10.582Z,60.18
2022-09-18T07:36:44.085Z,59.77
2022-09-18T07:37:18.065Z,59.38
2022-09-18T07:37:51.163Z,58.91
2022-09-18T07:38:24.345Z,58.57
2022-09-18T07:38:58.366Z,58.78
2022-09-18T07:39:31.857Z,59.33
2022-09-18T07:40:08.210Z,59.90
2022-09-18T07:40:43.633Z,60.46
2022-09-18T07:41:17.676Z,61.34
2022-09-18T07:41:51.064Z,62.10
2022-09-18T07:42:24.428Z,62.66
2022-09-18T07:43:03.499Z,63.47
2022-09-18T07:43:36.709Z,64.00
2022-09-18T07:44:10.679Z,63.63
2022-09-18T07:44:44.354Z,63.03
2022-09-18T07:45:18.254Z,62.20
2022-09-18T07:46:04.402Z,61.64
2022-09-18T07:46:38.437Z,61.15
2022-09-18T07:47:13.081Z,60.57
2022-09-18T07:47:46.382Z,60.35
2022-09-18T07:48:19.726Z,60.15
2022-09-18T07:48:53.065Z,59.81